createdAt,value
2018-09-20T00:01:37.956Z,73.40
2018-09-20T00:04:06.415Z,73.30
2018-09-20T00:06:34.870Z,73.30
2018-09-20T00:09:04.597Z,73.40
2018-09-20T00:11:33.071Z,73.30
2018-09-20T00:14:01.342Z,73.60
2018-09-20T00:16:29.780Z,73.90
2018-09-20T00:18:58.154Z,73.60
2018-09-20T00:21:26.599Z,73.90
2018-09-20T00:23:54.969Z,74.10
2018-09-20T00:26:23.380Z,74.10
2018-09-20T00:28:51.784Z,74.10
2018-09-20T00:31:20.037Z,74.20
2018-09-20T00:33:48.480Z,74.10
2018-09-20T00:36:17.032Z,74.10
2018-09-20T00:38:45.507Z,74.20
2018-09-20T00:41:14.008Z,74.10
2018-09-20T00:43:42.418Z,74.50
2018-09-20T00:46:10.827Z,74.70
2018-09-20T00:48:39.164Z,75.10
2018-09-20T00:51:07.613Z,75.20
2018-09-20T00:53:36.089Z,75.10
2018-09-20T00:56:04.652Z,75.30
2018-09-20T00:58:32.997Z,75.30
2018-09-20T01:01:01.420Z,75.30
2018-09-20T01:03:29.769Z,75.30
2018-09-20T01:05:58.169Z,75.50
2018-09-20T01:08:26.653Z,75.70
2018-09-20T01:10:55.053Z,76.00
2018-09-20T01:13:23.376Z,75.90
2018-09-20T01:15:51.711Z,75.90
2018-09-20T01:18:20.276Z,76.00
2018-09-20T01:20:48.633Z,76.00
2018-09-20T01:23:17.055Z,76.20
2018-09-20T01:25:45.390Z,76.60
2018-09-20T01:28:13.768Z,76.70
2018-09-20T01:30:42.117Z,76.70
2018-09-20T01:33:10.584Z,76.70
2018-09-20T01:35:39.220Z,76.90
2018-09-20T01:38:10.186Z,76.80
2018-09-20T01:40:38.564Z,77.00
2018-09-20T01:43:06.933Z,77.20
2018-09-20T01:45:37.025Z,77.30
2018-09-20T01:48:05.580Z,77.20
2018-09-20T01:50:34.008Z,77.20
2018-09-20T01:53:02.425Z,77.40
2018-09-20T01:55:31.009Z,77.40
2018-09-20T01:57:59.392Z,77.30
2018-09-20T02:00:27.962Z,77.20
2018-09-20T02:02:56.632Z,77.60
2018-09-20T02:05:25.147Z,77.60
2018-09-20T02:07:53.551Z,77.70
2018-09-20T02:10:22.081Z,77.50
2018-09-20T02:12:51.630Z,77.70
2018-09-20T02:15:20.052Z,77.80
2018-09-20T02:17:48.463Z,77.80
2018-09-20T02:20:16.878Z,78.00
2018-09-20T02:22:45.272Z,78.30
2018-09-20T02:25:13.725Z,78.40
2018-09-20T02:27:42.117Z,78.60
2018-09-20T02:30:10.522Z,78.50
2018-09-20T02:32:38.853Z,78.50
2018-09-20T02:35:07.348Z,78.60
2018-09-20T02:37:35.760Z,78.30
2018-09-20T02:40:04.249Z,78.40
2018-09-20T02:42:32.736Z,78.70
2018-09-20T02:45:01.211Z,78.70
2018-09-20T02:47:29.548Z,78.80
2018-09-20T02:49:58.072Z,78.80
2018-09-20T02:52:26.577Z,78.90
2018-09-20T02:54:54.990Z,78.90
2018-09-20T02:57:23.157Z,79.00
2018-09-20T02:59:51.493Z,78.90
2018-09-20T03:02:19.838Z,78.90
2018-09-20T03:04:48.188Z,78.80
2018-09-20T03:07:16.584Z,78.90
2018-09-20T03:09:45.000Z,78.90
2018-09-20T03:12:13.352Z,78.90
2018-09-20T03:14:41.745Z,79.00
2018-09-20T03:17:10.176Z,79.10
2018-09-20T03:19:38.536Z,79.00
2018-09-20T03:22:06.920Z,78.80
2018-09-20T03:24:35.317Z,78.70
2018-09-20T03:27:04.049Z,78.90
2018-09-20T03:29:32.632Z,79.00
2018-09-20T03:32:01.001Z,78.30
2018-09-20T03:34:29.414Z,78.10
2018-09-20T03:36:57.812Z,77.60
2018-09-20T03:39:26.230Z,77.80
2018-09-20T03:41:54.596Z,77.80
2018-09-20T03:44:23.007Z,77.70
2018-09-20T03:46:51.437Z,78.00
2018-09-20T03:49:19.864Z,78.10
2018-09-20T03:51:48.306Z,77.70
2018-09-20T03:54:16.736Z,77.80
2018-09-20T03:56:45.140Z,77.80
2018-09-20T03:59:13.576Z,78.00
2018-09-20T04:01:41.897Z,78.00
2018-09-20T04:04:10.331Z,79.00
2018-09-20T04:06:38.827Z,79.10
2018-09-20T04:09:09.559Z,78.30
2018-09-20T04:11:42.100Z,78.50
2018-09-20T04:14:10.596Z,78.70
2018-09-20T04:16:39.084Z,78.70
2018-09-20T04:19:07.517Z,78.80
2018-09-20T04:21:35.948Z,79.00
2018-09-20T04:24:05.500Z,79.10
2018-09-20T04:26:34.028Z,79.10
2018-09-20T04:29:02.547Z,79.20
2018-09-20T04:31:31.293Z,79.10
2018-09-20T04:34:00.630Z,79.10
2018-09-20T04:36:29.557Z,79.10
2018-09-20T04:38:57.948Z,79.20
2018-09-20T04:41:26.321Z,79.40
2018-09-20T04:43:54.760Z,79.30
2018-09-20T04:46:23.197Z,79.50
2018-09-20T04:48:51.571Z,79.30
2018-09-20T04:51:19.960Z,79.20
2018-09-20T04:53:48.331Z,78.90
2018-09-20T04:56:16.715Z,78.70
2018-09-20T04:58:45.100Z,78.40
2018-09-20T05:01:13.452Z,78.80
2018-09-20T05:03:41.869Z,79.00
2018-09-20T05:06:10.285Z,79.10
2018-09-20T05:08:38.744Z,79.20
2018-09-20T05:11:07.420Z,78.90
2018-09-20T05:13:35.846Z,78.40
2018-09-20T05:16:04.281Z,78.70
2018-09-20T05:18:33.933Z,78.50
2018-09-20T05:21:02.344Z,78.90
2018-09-20T05:23:30.812Z,79.00
2018-09-20T05:25:59.175Z,79.50
2018-09-20T05:28:27.687Z,79.50
2018-09-20T05:30:55.972Z,79.80
2018-09-20T05:33:24.405Z,80.40
2018-09-20T05:35:53.077Z,80.00
2018-09-20T05:38:21.504Z,79.90
2018-09-20T05:40:49.971Z,80.20
2018-09-20T05:43:18.357Z,80.50
2018-09-20T05:45:46.644Z,80.60
2018-09-20T05:48:15.050Z,80.70
2018-09-20T05:50:43.411Z,80.90
2018-09-20T05:53:11.940Z,81.20
2018-09-20T05:55:40.296Z,81.30
2018-09-20T05:58:08.798Z,81.30
2018-09-20T06:00:48.254Z,81.40
2018-09-20T06:03:16.680Z,81.50
2018-09-20T06:05:45.092Z,81.90
2018-09-20T06:08:13.460Z,82.10
2018-09-20T06:10:41.904Z,82.10
2018-09-20T06:13:10.311Z,82.20
2018-09-20T06:15:38.730Z,82.60
2018-09-20T06:18:07.162Z,82.50
2018-09-20T06:20:35.770Z,82.60
2018-09-20T06:23:04.133Z,82.70
2018-09-20T06:25:32.508Z,83.10
2018-09-20T06:28:03.613Z,82.80
2018-09-20T06:30:32.024Z,82.70
2018-09-20T06:33:00.399Z,82.60
2018-09-20T06:35:29.589Z,82.70
2018-09-20T06:37:59.632Z,82.70
2018-09-20T06:40:29.919Z,83.60
2018-09-20T06:43:00.076Z,83.40
2018-09-20T06:45:30.353Z,83.80
2018-09-20T06:47:58.866Z,83.60
2018-09-20T06:50:27.466Z,83.80
2018-09-20T06:52:55.848Z,84.10
2018-09-20T06:55:24.269Z,84.30
2018-09-20T06:57:54.657Z,84.60
2018-09-20T07:00:23.258Z,84.60
2018-09-20T07:02:53.719Z,84.10
2018-09-20T07:05:22.195Z,83.60
2018-09-20T07:07:52.677Z,83.10
2018-09-20T07:10:21.011Z,83.60
2018-09-20T07:12:49.502Z,83.80
2018-09-20T07:15:17.900Z,83.30
2018-09-20T07:17:46.405Z,82.90
2018-09-20T07:20:14.841Z,82.50
2018-09-20T07:22:43.248Z,81.70
2018-09-20T07:25:11.812Z,81.40
2018-09-20T07:27:40.196Z,81.50
2018-09-20T07:30:08.817Z,81.90
2018-09-20T07:32:37.355Z,81.90
2018-09-20T07:35:06.046Z,82.00
2018-09-20T07:37:34.471Z,81.80
2018-09-20T07:40:02.852Z,81.80
2018-09-20T07:42:31.275Z,82.60
2018-09-20T07:44:59.691Z,81.70
2018-09-20T07:47:28.127Z,81.10
2018-09-20T07:49:56.615Z,78.00
2018-09-20T07:52:25.052Z,78.40
2018-09-20T07:54:53.596Z,79.50
2018-09-20T07:57:22.620Z,78.40
2018-09-20T07:59:50.965Z,77.40
2018-09-20T08:02:19.349Z,78.00
2018-09-20T08:04:47.791Z,77.90
2018-09-20T08:07:16.259Z,77.90
2018-09-20T08:09:44.642Z,77.60
2018-09-20T08:12:13.036Z,77.60
2018-09-20T08:15:04.513Z,76.50
2018-09-20T08:17:32.911Z,75.10
2018-09-20T08:20:01.308Z,74.00
2018-09-20T08:22:29.740Z,74.50
2018-09-20T08:24:58.125Z,74.50
2018-09-20T08:27:26.507Z,72.70
2018-09-20T08:29:54.644Z,72.40
2018-09-20T08:32:23.047Z,71.70
2018-09-20T08:34:51.461Z,70.10
2018-09-20T08:37:19.987Z,72.70
2018-09-20T08:39:48.286Z,72.50
2018-09-20T08:42:16.728Z,71.00
2018-09-20T08:44:45.137Z,71.70
2018-09-20T08:47:14.339Z,70.70
2018-09-20T08:49:42.816Z,67.80
2018-09-20T08:52:11.210Z,67.10
2018-09-20T08:54:41.364Z,67.40
2018-09-20T08:57:11.595Z,67.90
2018-09-20T08:59:40.033Z,69.30
2018-09-20T09:02:08.435Z,66.10
2018-09-20T09:04:38.579Z,66.80
2018-09-20T09:07:08.800Z,62.90
2018-09-20T09:09:38.821Z,60.80
2018-09-20T09:12:08.941Z,63.40
2018-09-20T09:15:10.573Z,62.30
2018-09-20T09:17:38.988Z,63.00
2018-09-20T09:20:07.448Z,58.20
2018-09-20T09:22:35.849Z,56.70
2018-09-20T09:25:04.414Z,56.00
2018-09-20T09:27:32.892Z,55.00
2018-09-20T09:30:01.329Z,53.40
2018-09-20T09:32:29.748Z,53.00
2018-09-20T09:34:58.064Z,53.30
2018-09-20T09:37:26.553Z,52.60
2018-09-20T09:39:54.967Z,51.50
2018-09-20T09:42:57.271Z,51.00
2018-09-20T09:45:25.648Z,51.90
2018-09-20T09:47:55.799Z,50.80
2018-09-20T09:50:24.765Z,50.00
2018-09-20T09:52:54.727Z,50.20
2018-09-20T09:55:23.136Z,49.70
2018-09-20T09:57:54.725Z,50.00
2018-09-20T10:00:28.605Z,49.30
2018-09-20T10:02:58.276Z,49.10
2018-09-20T10:05:26.878Z,49.00
2018-09-20T10:07:55.716Z,49.50
2018-09-20T10:10:24.636Z,49.90
2018-09-20T10:12:55.075Z,49.30
2018-09-20T10:15:26.092Z,49.30
2018-09-20T10:17:55.392Z,49.80
2018-09-20T10:20:23.860Z,50.30
2018-09-20T10:22:54.045Z,48.30
2018-09-20T10:25:22.548Z,48.40
2018-09-20T10:27:52.635Z,48.00
2018-09-20T10:30:21.492Z,48.60
2018-09-20T10:32:50.175Z,46.90
2018-09-20T10:35:18.689Z,46.70
2018-09-20T10:37:47.063Z,46.10
2018-09-20T10:40:15.524Z,46.70
2018-09-20T10:42:43.942Z,44.70
2018-09-20T10:45:12.349Z,44.80
2018-09-20T10:47:40.620Z,45.70
2018-09-20T10:50:09.176Z,44.50
2018-09-20T10:52:37.572Z,44.40
2018-09-20T10:55:06.105Z,44.20
2018-09-20T10:57:34.552Z,44.20
2018-09-20T11:00:03.065Z,45.10
2018-09-20T11:02:31.438Z,43.70
2018-09-20T11:04:59.912Z,42.80
2018-09-20T11:07:28.362Z,42.00
2018-09-20T11:09:56.712Z,40.60
2018-09-20T11:12:25.102Z,40.70
2018-09-20T11:15:25.250Z,40.50
2018-09-20T11:17:55.100Z,40.10
2018-09-20T11:20:23.632Z,40.80
2018-09-20T11:22:53.708Z,39.70
2018-09-20T11:25:22.237Z,39.50
2018-09-20T11:27:50.664Z,39.90
2018-09-20T11:30:19.021Z,39.20
2018-09-20T11:32:47.491Z,39.20
2018-09-20T11:35:15.884Z,39.50
2018-09-20T11:37:44.260Z,39.60
2018-09-20T11:40:12.550Z,38.10
2018-09-20T11:42:40.981Z,37.50
2018-09-20T11:45:09.356Z,37.80
2018-09-20T11:47:37.693Z,38.30
2018-09-20T11:50:06.759Z,38.30
2018-09-20T11:52:35.180Z,38.80
2018-09-20T11:55:03.600Z,38.30
2018-09-20T11:57:32.129Z,38.40
2018-09-20T12:00:00.584Z,39.40
2018-09-20T12:02:29.016Z,38.80
2018-09-20T12:04:57.508Z,39.00
2018-09-20T12:07:25.866Z,37.90
2018-09-20T12:09:54.358Z,36.70
2018-09-20T12:12:22.752Z,37.00
2018-09-20T12:15:31.723Z,37.00
2018-09-20T12:18:00.122Z,37.00
2018-09-20T12:20:28.903Z,38.90
2018-09-20T12:22:57.333Z,39.40
2018-09-20T12:25:25.919Z,38.90
2018-09-20T12:27:55.611Z,39.20
2018-09-20T12:30:24.085Z,39.50
2018-09-20T12:32:54.285Z,39.00
2018-09-20T12:35:22.705Z,38.90
2018-09-20T12:37:52.771Z,38.40
2018-09-20T12:40:21.276Z,38.00
2018-09-20T12:42:49.762Z,37.70
2018-09-20T12:45:18.105Z,37.60
2018-09-20T12:47:46.521Z,36.20
2018-09-20T12:50:14.892Z,36.30
2018-09-20T12:52:43.437Z,36.40
2018-09-20T12:55:11.800Z,35.50
2018-09-20T12:57:40.152Z,35.90
2018-09-20T13:00:09.916Z,36.40
2018-09-20T13:02:38.417Z,37.10
2018-09-20T13:05:07.009Z,37.70
2018-09-20T13:07:35.376Z,38.10
2018-09-20T13:10:04.009Z,38.30
2018-09-20T13:12:32.310Z,37.70
2018-09-20T13:15:44.690Z,37.00
2018-09-20T13:18:13.106Z,36.40
2018-09-20T13:20:41.521Z,35.70
2018-09-20T13:23:10.615Z,34.90
2018-09-20T13:25:39.601Z,36.00
2018-09-20T13:28:08.412Z,34.80
2018-09-20T13:30:36.707Z,35.00
2018-09-20T13:33:05.302Z,35.00
2018-09-20T13:35:33.977Z,34.50
2018-09-20T13:38:02.445Z,33.10
2018-09-20T13:40:31.723Z,32.70
2018-09-20T13:43:00.341Z,33.10
2018-09-20T13:45:28.949Z,32.30
2018-09-20T13:47:57.368Z,32.90
2018-09-20T13:50:25.905Z,33.10
2018-09-20T13:52:55.592Z,32.90
2018-09-20T13:55:24.063Z,32.30
2018-09-20T13:57:53.698Z,32.50
2018-09-20T14:00:22.060Z,32.70
2018-09-20T14:02:50.413Z,32.00
2018-09-20T14:05:18.769Z,32.10
2018-09-20T14:07:47.227Z,32.30
2018-09-20T14:10:15.751Z,32.50
2018-09-20T14:12:44.085Z,32.00
2018-09-20T14:18:29.425Z,30.90
2018-09-20T14:20:57.852Z,31.40
2018-09-20T14:23:26.297Z,31.40
2018-09-20T14:25:54.767Z,31.30
2018-09-20T14:28:23.474Z,31.00
2018-09-20T14:30:51.920Z,30.40
2018-09-20T14:33:20.396Z,31.10
2018-09-20T14:35:48.784Z,30.70
2018-09-20T14:38:17.164Z,31.40
2018-09-20T14:40:45.722Z,30.90
2018-09-20T14:43:14.179Z,30.70
2018-09-20T14:45:42.677Z,31.30
2018-09-20T14:48:11.228Z,30.70
2018-09-20T14:50:39.680Z,30.90
2018-09-20T14:53:08.089Z,31.10
2018-09-20T14:55:36.877Z,31.70
2018-09-20T14:58:05.876Z,31.90
2018-09-20T15:00:34.866Z,31.50
2018-09-20T15:03:03.560Z,31.90
2018-09-20T15:05:32.136Z,31.90
2018-09-20T15:08:00.584Z,31.30
2018-09-20T15:10:29.227Z,31.10
2018-09-20T15:12:57.675Z,30.70
2018-09-20T15:18:47.532Z,31.50
2018-09-20T15:21:16.288Z,32.00
2018-09-20T15:23:45.184Z,31.80
2018-09-20T15:26:13.692Z,31.70
2018-09-20T15:28:42.108Z,31.90
2018-09-20T15:31:10.564Z,32.30
2018-09-20T15:33:39.037Z,32.60
2018-09-20T15:36:07.432Z,32.70
2018-09-20T15:38:35.845Z,33.10
2018-09-20T15:41:04.725Z,33.10
2018-09-20T15:43:33.138Z,33.50
2018-09-20T15:46:01.497Z,33.70
2018-09-20T15:48:29.980Z,33.70
2018-09-20T15:50:58.780Z,34.30
2018-09-20T15:53:27.196Z,34.60
2018-09-20T15:55:55.596Z,35.00
2018-09-20T15:58:24.037Z,34.90
2018-09-20T16:00:52.563Z,35.40
2018-09-20T16:03:20.855Z,35.60
2018-09-20T16:05:49.324Z,35.70
2018-09-20T16:08:17.780Z,35.80
2018-09-20T16:10:46.200Z,36.20
2018-09-20T16:13:14.678Z,36.60
2018-09-20T16:19:03.772Z,37.30
2018-09-20T16:21:32.229Z,37.20
2018-09-20T16:24:00.590Z,37.30
2018-09-20T16:26:28.903Z,37.60
2018-09-20T16:29:10.501Z,38.00
2018-09-20T16:31:50.385Z,38.10
2018-09-20T16:35:06.256Z,38.60
2018-09-20T16:37:40.115Z,39.10
2018-09-20T16:40:09.874Z,39.40
2018-09-20T16:42:40.060Z,39.70
2018-09-20T16:45:08.397Z,40.00
2018-09-20T16:47:36.811Z,40.50
2018-09-20T16:50:05.325Z,40.50
2018-09-20T16:52:34.108Z,40.40
2018-09-20T16:55:02.572Z,40.50
2018-09-20T16:57:30.940Z,40.70
2018-09-20T16:59:59.347Z,40.60
2018-09-20T17:02:27.817Z,40.90
2018-09-20T17:04:56.278Z,41.30
2018-09-20T17:07:25.012Z,41.60
2018-09-20T17:09:53.409Z,42.10
2018-09-20T17:12:21.832Z,42.60
2018-09-20T17:15:27.299Z,42.70
2018-09-20T17:17:56.436Z,42.90
2018-09-20T17:20:25.341Z,42.90
2018-09-20T17:22:54.747Z,43.20
2018-09-20T17:25:23.367Z,43.10
2018-09-20T17:27:52.030Z,43.70
2018-09-20T17:30:20.793Z,43.60
2018-09-20T17:32:49.494Z,44.00
2018-09-20T17:35:17.989Z,44.30
2018-09-20T17:37:47.236Z,44.30
2018-09-20T17:40:16.177Z,44.50
2018-09-20T17:42:46.232Z,44.60
2018-09-20T17:45:14.576Z,44.70
2018-09-20T17:47:43.193Z,44.80
2018-09-20T17:50:11.760Z,44.80
2018-09-20T17:52:40.539Z,44.60
2018-09-20T17:55:09.214Z,45.20
2018-09-20T17:57:38.145Z,45.50
2018-09-20T18:00:06.806Z,45.20
2018-09-20T18:02:35.573Z,45.00
2018-09-20T18:05:04.029Z,45.20
2018-09-20T18:07:32.457Z,45.00
2018-09-20T18:10:00.932Z,45.20
2018-09-20T18:12:29.440Z,45.20
2018-09-20T18:18:17.379Z,46.00
2018-09-20T18:20:45.796Z,45.90
2018-09-20T18:23:14.548Z,46.10
2018-09-20T18:25:43.328Z,46.20
2018-09-20T18:28:12.367Z,46.10
2018-09-20T18:30:41.278Z,46.60
2018-09-20T18:33:09.748Z,47.10
2018-09-20T18:35:38.283Z,48.00
2018-09-20T18:38:07.063Z,47.70
2018-09-20T18:40:35.675Z,48.30
2018-09-20T18:43:03.987Z,47.80
2018-09-20T18:45:32.469Z,47.90
2018-09-20T18:48:01.099Z,47.90
2018-09-20T18:50:29.831Z,48.10
2018-09-20T18:52:58.524Z,47.90
2018-09-20T18:55:27.175Z,47.60
2018-09-20T18:57:56.901Z,47.80
2018-09-20T19:00:25.868Z,48.10
2018-09-20T19:02:56.240Z,47.60
2018-09-20T19:05:24.806Z,47.60
2018-09-20T19:07:55.051Z,47.90
2018-09-20T19:10:23.561Z,48.60
2018-09-20T19:12:52.070Z,49.00
2018-09-20T19:18:41.478Z,49.00
2018-09-20T19:21:10.032Z,49.60
2018-09-20T19:23:38.417Z,50.10
2018-09-20T19:26:07.805Z,50.20
2018-09-20T19:28:36.205Z,50.10
2018-09-20T19:31:04.705Z,50.20
2018-09-20T19:33:33.353Z,50.30
2018-09-20T19:36:01.911Z,50.50
2018-09-20T19:38:30.355Z,50.30
2018-09-20T19:40:58.833Z,50.20
2018-09-20T19:43:27.167Z,50.70
2018-09-20T19:45:55.555Z,50.80
2018-09-20T19:48:24.181Z,50.90
2018-09-20T19:50:52.544Z,51.00
2018-09-20T19:53:21.016Z,51.00
2018-09-20T19:55:49.489Z,51.00
2018-09-20T19:58:17.880Z,50.90
2018-09-20T20:00:46.399Z,51.10
2018-09-20T20:03:14.856Z,51.40
2018-09-20T20:05:43.272Z,51.50
2018-09-20T20:08:11.813Z,51.60
2018-09-20T20:10:40.184Z,51.70
2018-09-20T20:13:08.596Z,51.60
2018-09-20T20:18:55.176Z,51.90
2018-09-20T20:21:23.560Z,52.40
2018-09-20T20:23:52.018Z,52.50
2018-09-20T20:27:10.749Z,52.70
2018-09-20T20:29:39.487Z,52.50
2018-09-20T20:32:08.180Z,52.80
2018-09-20T20:34:36.717Z,52.90
2018-09-20T20:37:05.505Z,53.20
2018-09-20T20:39:33.983Z,53.20
2018-09-20T20:42:02.453Z,53.20
2018-09-20T20:44:30.977Z,53.30
2018-09-20T20:46:59.384Z,53.50
2018-09-20T20:49:27.848Z,53.40
2018-09-20T20:51:56.283Z,53.30
2018-09-20T20:54:24.713Z,53.30
2018-09-20T20:56:53.173Z,53.60
2018-09-20T20:59:22.124Z,53.50
2018-09-20T21:01:50.451Z,54.20
2018-09-20T21:04:18.896Z,54.20
2018-09-20T21:06:47.287Z,54.30
2018-09-20T21:09:15.688Z,54.50
2018-09-20T21:11:44.040Z,54.70
2018-09-20T21:14:12.547Z,55.10
2018-09-20T21:17:02.322Z,55.40
2018-09-20T21:19:31.286Z,55.40
2018-09-20T21:22:00.064Z,55.90
2018-09-20T21:24:28.416Z,56.10
2018-09-20T21:26:56.725Z,56.00
2018-09-20T21:29:25.448Z,55.90
2018-09-20T21:31:53.720Z,55.90
2018-09-20T21:34:22.285Z,56.20
2018-09-20T21:36:50.797Z,56.50
2018-09-20T21:39:19.645Z,56.80
2018-09-20T21:41:48.064Z,56.80
2018-09-20T21:44:16.412Z,57.00
2018-09-20T21:46:45.148Z,57.40
2018-09-20T21:49:13.654Z,57.60
2018-09-20T21:51:42.065Z,57.60
2018-09-20T21:54:10.935Z,57.10
2018-09-20T21:56:39.417Z,57.10
2018-09-20T21:59:07.780Z,57.10
2018-09-20T22:01:41.671Z,57.20
2018-09-20T22:04:10.241Z,57.20
2018-09-20T22:06:38.676Z,57.50
2018-09-20T22:09:09.829Z,57.10
2018-09-20T22:11:38.585Z,57.20
2018-09-20T22:14:07.068Z,57.30
2018-09-20T22:16:35.712Z,57.60
2018-09-20T22:19:04.720Z,57.90
2018-09-20T22:21:33.797Z,58.40
2018-09-20T22:24:02.320Z,58.10
2018-09-20T22:26:30.828Z,58.20
2018-09-20T22:28:59.272Z,58.10
2018-09-20T22:31:27.628Z,58.10
2018-09-20T22:33:56.450Z,58.30
2018-09-20T22:36:25.328Z,58.40
2018-09-20T22:38:53.783Z,58.40
2018-09-20T22:41:22.219Z,58.50
2018-09-20T22:43:51.011Z,58.50
2018-09-20T22:46:20.195Z,58.60
2018-09-20T22:48:48.549Z,58.70
2018-09-20T22:51:16.966Z,58.70
2018-09-20T22:53:45.387Z,58.80
2018-09-20T22:56:13.948Z,58.90
2018-09-20T22:58:42.320Z,59.00
2018-09-20T23:01:15.398Z,58.90
2018-09-20T23:03:45.660Z,59.00
2018-09-20T23:06:14.125Z,59.00
2018-09-20T23:08:42.876Z,59.10
2018-09-20T23:11:11.795Z,59.30
2018-09-20T23:13:40.300Z,59.40
2018-09-20T23:16:08.791Z,59.60
2018-09-20T23:18:37.157Z,59.70
2018-09-20T23:21:05.919Z,59.70
2018-09-20T23:23:34.519Z,59.70
2018-09-20T23:26:03.035Z,59.70
2018-09-20T23:28:31.470Z,59.60
2018-09-20T23:31:00.005Z,59.80
2018-09-20T23:33:28.244Z,60.00
2018-09-20T23:35:56.568Z,60.30
2018-09-20T23:38:24.872Z,60.50
2018-09-20T23:40:53.460Z,60.50
2018-09-20T23:43:21.893Z,60.50
2018-09-20T23:45:50.333Z,60.50
2018-09-20T23:48:18.660Z,60.60
2018-09-20T23:50:47.212Z,60.60
2018-09-20T23:53:15.624Z,60.70
2018-09-20T23:55:44.009Z,60.80
2018-09-20T23:58:12.433Z,60.80
